createdAt,value
2018-09-02T00:01:12.950Z,7.37
2018-09-02T00:03:41.718Z,7.10
2018-09-02T00:06:11.216Z,8.43
2018-09-02T00:08:39.975Z,9.13
2018-09-02T00:11:08.730Z,9.63
2018-09-02T00:13:37.501Z,12.17
2018-09-02T00:16:07.824Z,17.30
2018-09-02T00:18:36.712Z,19.03
2018-09-02T00:21:05.697Z,20.17
2018-09-02T00:23:34.450Z,20.77
2018-09-02T00:26:03.541Z,16.93
2018-09-02T00:28:35.785Z,20.73
2018-09-02T00:31:05.937Z,19.47
2018-09-02T00:33:34.884Z,18.37
2018-09-02T00:36:03.723Z,15.37
2018-09-02T00:38:32.837Z,16.67
2018-09-02T00:41:01.609Z,18.83
2018-09-02T00:43:33.291Z,17.53
2018-09-02T00:46:04.480Z,19.60
2018-09-02T00:48:34.840Z,22.57
2018-09-02T00:51:04.040Z,22.83
2018-09-02T00:53:33.348Z,24.13
2018-09-02T00:56:02.499Z,27.43
2018-09-02T00:58:31.812Z,32.97
2018-09-02T01:01:03.142Z,40.13
2018-09-02T01:03:35.000Z,43.83
2018-09-02T01:06:04.900Z,45.50
2018-09-02T01:08:33.738Z,50.80
2018-09-02T01:11:02.535Z,43.93
2018-09-02T01:13:31.464Z,44.13
2018-09-02T01:16:01.028Z,34.30
2018-09-02T01:18:30.170Z,38.00
2018-09-02T01:20:58.945Z,37.17
2018-09-02T01:23:27.776Z,33.40
2018-09-02T01:25:56.936Z,40.03
2018-09-02T01:28:25.847Z,37.77
2018-09-02T01:30:54.604Z,35.97
2018-09-02T01:33:27.288Z,40.57
2018-09-02T01:35:57.882Z,36.33
2018-09-02T01:38:27.049Z,39.70
2018-09-02T01:40:56.187Z,37.93
2018-09-02T01:43:24.949Z,35.80
2018-09-02T01:45:54.186Z,34.53
2018-09-02T01:48:24.199Z,37.97
2018-09-02T01:50:55.796Z,35.53
2018-09-02T01:53:24.529Z,34.23
2018-09-02T01:55:53.652Z,38.50
2018-09-02T01:58:23.568Z,34.87
2018-09-02T02:00:52.681Z,30.67
2018-09-02T02:03:21.706Z,32.47
2018-09-02T02:05:50.469Z,30.13
2018-09-02T02:08:19.235Z,28.60
2018-09-02T02:10:48.473Z,29.10
2018-09-02T02:13:17.207Z,29.83
2018-09-02T02:15:46.130Z,28.40
2018-09-02T02:18:15.206Z,28.10
2018-09-02T02:20:45.119Z,23.43
2018-09-02T02:23:13.969Z,24.40
2018-09-02T02:25:42.785Z,23.80
2018-09-02T02:28:11.521Z,26.80
2018-09-02T02:30:40.801Z,24.80
2018-09-02T02:33:10.526Z,27.43
2018-09-02T02:35:39.541Z,28.80
2018-09-02T02:38:08.837Z,26.63
2018-09-02T02:40:38.047Z,26.60
2018-09-02T02:43:07.480Z,28.37
2018-09-02T02:45:36.988Z,27.37
2018-09-02T02:48:05.894Z,24.83
2018-09-02T02:50:37.275Z,24.97
2018-09-02T02:53:07.573Z,30.43
2018-09-02T02:55:37.074Z,31.13
2018-09-02T02:58:05.887Z,23.97
2018-09-02T03:00:34.681Z,28.50
2018-09-02T03:03:04.644Z,26.30
2018-09-02T03:05:33.405Z,25.60
2018-09-02T03:08:04.200Z,25.13
2018-09-02T03:10:33.317Z,30.83
2018-09-02T03:13:02.058Z,24.20
2018-09-02T03:15:31.304Z,23.50
2018-09-02T03:18:00.049Z,28.40
2018-09-02T03:20:29.171Z,21.93
2018-09-02T03:22:58.085Z,26.03
2018-09-02T03:25:26.850Z,23.53
2018-09-02T03:27:56.025Z,25.67
2018-09-02T03:30:24.807Z,22.70
2018-09-02T03:32:53.963Z,22.53
2018-09-02T03:35:22.832Z,25.40
2018-09-02T03:37:53.012Z,21.17
2018-09-02T03:40:22.107Z,23.67
2018-09-02T03:42:51.126Z,21.33
2018-09-02T03:45:20.378Z,23.40
2018-09-02T03:47:49.143Z,22.63
2018-09-02T03:50:20.132Z,22.40
2018-09-02T03:52:49.447Z,21.37
2018-09-02T03:55:18.567Z,21.43
2018-09-02T03:57:47.504Z,20.53
2018-09-02T04:00:19.239Z,17.97
2018-09-02T04:02:48.401Z,17.87
2018-09-02T04:05:17.541Z,21.13
2018-09-02T04:07:46.505Z,16.80
2018-09-02T04:10:15.290Z,14.93
2018-09-02T04:12:47.680Z,17.03
2018-09-02T04:15:17.744Z,19.67
2018-09-02T04:17:48.267Z,19.20
2018-09-02T04:20:21.637Z,18.40
2018-09-02T04:22:50.448Z,20.70
2018-09-02T04:25:19.452Z,21.57
2018-09-02T04:27:48.419Z,20.23
2018-09-02T04:30:17.256Z,16.77
2018-09-02T04:32:46.909Z,18.43
2018-09-02T04:35:16.029Z,20.37
2018-09-02T04:37:44.794Z,19.30
2018-09-02T04:40:14.026Z,18.77
2018-09-02T04:42:42.820Z,18.57
2018-09-02T04:45:12.232Z,16.77
2018-09-02T04:47:42.729Z,16.23
2018-09-02T04:50:16.790Z,21.07
2018-09-02T04:52:46.115Z,17.33
2018-09-02T04:55:14.991Z,17.60
2018-09-02T04:57:44.533Z,19.80
2018-09-02T05:00:13.913Z,19.03
2018-09-02T05:02:43.076Z,21.33
2018-09-02T05:05:13.587Z,18.87
2018-09-02T05:07:43.812Z,19.60
2018-09-02T05:10:13.219Z,16.63
2018-09-02T05:12:41.992Z,16.40
2018-09-02T05:15:10.881Z,17.87
2018-09-02T05:17:39.716Z,16.13
2018-09-02T05:20:09.119Z,21.40
2018-09-02T05:22:40.100Z,18.47
2018-09-02T05:25:08.915Z,19.17
2018-09-02T05:27:38.129Z,17.40
2018-09-02T05:30:07.529Z,17.57
2018-09-02T05:32:36.737Z,16.47
2018-09-02T05:35:06.206Z,16.73
2018-09-02T05:37:35.147Z,15.90
2018-09-02T05:40:04.035Z,17.27
2018-09-02T05:42:32.773Z,16.33
2018-09-02T05:45:01.519Z,17.23
2018-09-02T05:47:30.299Z,21.47
2018-09-02T05:50:00.504Z,15.63
2018-09-02T05:52:31.568Z,15.97
2018-09-02T05:55:00.775Z,16.47
2018-09-02T05:57:29.937Z,17.23
2018-09-02T05:59:59.140Z,19.57
2018-09-02T06:02:28.419Z,16.63
2018-09-02T06:04:57.471Z,18.50
2018-09-02T06:07:27.138Z,19.93
2018-09-02T06:09:56.428Z,22.53
2018-09-02T06:12:25.532Z,17.90
2018-09-02T06:14:54.608Z,18.37
2018-09-02T06:17:23.479Z,17.40
2018-09-02T06:19:53.766Z,16.73
2018-09-02T06:22:22.902Z,17.03
2018-09-02T06:24:51.910Z,17.40
2018-09-02T06:27:20.682Z,19.03
2018-09-02T06:29:50.221Z,17.13
2018-09-02T06:32:19.070Z,17.70
2018-09-02T06:34:48.137Z,16.63
2018-09-02T06:37:16.888Z,17.73
2018-09-02T06:39:45.733Z,18.00
2018-09-02T06:42:14.504Z,18.33
2018-09-02T06:44:44.022Z,15.43
2018-09-02T06:47:13.442Z,16.87
2018-09-02T06:49:43.189Z,18.33
2018-09-02T06:52:12.034Z,16.00
2018-09-02T06:54:40.888Z,17.80
2018-09-02T06:57:10.118Z,15.80
2018-09-02T06:59:38.907Z,15.83
2018-09-02T07:02:07.785Z,15.77
2018-09-02T07:04:37.944Z,16.57
2018-09-02T07:07:08.703Z,14.70
2018-09-02T07:09:37.464Z,15.27
2018-09-02T07:12:06.206Z,13.63
2018-09-02T07:14:34.994Z,14.40
2018-09-02T07:17:03.883Z,13.33
2018-09-02T07:19:35.223Z,16.00
2018-09-02T07:22:05.212Z,13.13
2018-09-02T07:24:34.038Z,14.47
2018-09-02T07:27:03.395Z,13.17
2018-09-02T07:29:32.733Z,12.90
2018-09-02T07:32:01.507Z,14.07
2018-09-02T07:34:30.280Z,15.10
2018-09-02T07:37:01.267Z,14.77
2018-09-02T07:39:31.676Z,12.43
2018-09-02T07:42:00.578Z,13.63
2018-09-02T07:44:29.638Z,13.00
2018-09-02T07:46:58.415Z,13.47
2018-09-02T07:49:27.209Z,13.90
2018-09-02T07:51:57.861Z,13.30
2018-09-02T07:54:27.971Z,12.90
2018-09-02T07:56:57.332Z,14.93
2018-09-02T07:59:26.339Z,14.17
2018-09-02T08:01:55.700Z,12.90
2018-09-02T08:04:24.787Z,13.67
2018-09-02T08:06:53.893Z,12.50
2018-09-02T08:09:23.507Z,13.13
2018-09-02T08:11:53.477Z,14.33
2018-09-02T08:14:22.224Z,14.20
2018-09-02T08:16:51.032Z,13.00
2018-09-02T08:19:20.275Z,14.20
2018-09-02T08:21:49.103Z,13.77
2018-09-02T08:24:18.231Z,13.40
2018-09-02T08:26:47.177Z,15.13
2018-09-02T08:29:16.141Z,13.20
2018-09-02T08:31:44.956Z,14.07
2018-09-02T08:34:13.725Z,17.67
2018-09-02T08:36:43.622Z,13.83
2018-09-02T08:39:13.779Z,15.00
2018-09-02T08:41:43.211Z,14.30
2018-09-02T08:44:13.354Z,15.00
2018-09-02T08:46:42.442Z,13.07
2018-09-02T08:49:11.226Z,13.67
2018-09-02T08:51:40.444Z,14.80
2018-09-02T08:54:10.076Z,14.37
2018-09-02T08:56:39.191Z,12.73
2018-09-02T08:59:08.277Z,16.37
2018-09-02T09:01:37.139Z,13.03
2018-09-02T09:04:06.455Z,15.57
2018-09-02T09:06:35.761Z,18.73
2018-09-02T09:09:07.225Z,13.63
2018-09-02T09:11:36.912Z,14.27
2018-09-02T09:14:06.377Z,14.03
2018-09-02T09:16:35.756Z,11.97
2018-09-02T09:19:04.535Z,11.50
2018-09-02T09:21:33.510Z,13.00
2018-09-02T09:24:02.389Z,18.50
2018-09-02T09:26:31.549Z,12.10
2018-09-02T09:29:00.689Z,10.00
2018-09-02T09:31:29.710Z,11.40
2018-09-02T09:33:58.442Z,11.97
2018-09-02T09:36:27.868Z,9.50
2018-09-02T09:38:56.645Z,10.97
2018-09-02T09:41:25.678Z,10.90
2018-09-02T09:43:54.491Z,9.30
2018-09-02T09:46:25.380Z,9.03
2018-09-02T09:48:56.555Z,9.17
2018-09-02T09:51:25.942Z,10.27
2018-09-02T09:53:55.047Z,8.90
2018-09-02T09:56:24.609Z,10.33
2018-09-02T09:58:53.416Z,7.67
2018-09-02T10:01:23.521Z,9.07
2018-09-02T10:03:54.726Z,8.40
2018-09-02T10:06:23.723Z,10.50
2018-09-02T10:08:52.717Z,8.07
2018-09-02T10:11:21.523Z,9.37
2018-09-02T10:13:50.316Z,6.90
2018-09-02T10:16:19.571Z,7.63
2018-09-02T10:18:51.306Z,7.63
2018-09-02T10:21:20.806Z,10.33
2018-09-02T10:23:49.632Z,8.33
2018-09-02T10:26:18.659Z,5.40
2018-09-02T10:28:47.544Z,5.67
2018-09-02T10:31:17.695Z,6.33
2018-09-02T10:33:48.894Z,8.87
2018-09-02T10:36:18.201Z,5.30
2018-09-02T10:38:47.008Z,6.83
2018-09-02T10:41:16.622Z,4.42
2018-09-02T10:43:45.697Z,5.70
2018-09-02T10:46:16.328Z,4.50
2018-09-02T10:48:47.507Z,4.07
2018-09-02T10:51:16.546Z,7.07
2018-09-02T10:53:45.475Z,5.45
2018-09-02T10:56:14.256Z,4.27
2018-09-02T10:58:43.193Z,7.40
2018-09-02T11:01:12.913Z,6.97
2018-09-02T11:03:43.858Z,6.73
2018-09-02T11:06:13.005Z,4.70
2018-09-02T11:08:42.123Z,3.90
2018-09-02T11:11:11.376Z,5.27
2018-09-02T11:13:40.735Z,4.87
2018-09-02T11:16:10.115Z,4.43
2018-09-02T11:18:42.209Z,3.92
2018-09-02T11:21:13.012Z,5.50
2018-09-02T11:23:41.986Z,5.57
2018-09-02T11:26:11.130Z,3.40
2018-09-02T11:28:39.927Z,5.03
2018-09-02T11:31:10.230Z,4.05
2018-09-02T11:33:40.891Z,4.83
2018-09-02T11:36:12.303Z,6.75
2018-09-02T11:38:41.485Z,4.10
2018-09-02T11:41:10.642Z,4.12
2018-09-02T11:43:39.829Z,3.50
2018-09-02T11:46:09.096Z,3.70
2018-09-02T11:48:38.036Z,4.28
2018-09-02T11:51:07.982Z,3.90
2018-09-02T11:53:37.064Z,3.33
2018-09-02T11:56:05.981Z,4.92
2018-09-02T11:58:35.617Z,3.83
2018-09-02T12:01:04.666Z,3.70
2018-09-02T12:03:33.986Z,6.33
2018-09-02T12:06:04.116Z,3.98
2018-09-02T12:08:33.362Z,4.03
2018-09-02T12:11:02.687Z,3.50
2018-09-02T12:13:31.813Z,3.58
2018-09-02T12:16:00.651Z,3.00
2018-09-02T12:18:29.721Z,4.55
2018-09-02T12:21:00.472Z,3.70
2018-09-02T12:23:29.673Z,4.75
2018-09-02T12:25:58.865Z,4.92
2018-09-02T12:28:27.622Z,3.22
2018-09-02T12:30:56.494Z,3.08
2018-09-02T12:33:26.469Z,3.85
2018-09-02T12:35:56.318Z,6.47
2018-09-02T12:38:25.567Z,4.75
2018-09-02T12:40:54.620Z,4.72
2018-09-02T12:43:23.436Z,3.72
2018-09-02T12:45:52.310Z,3.65
2018-09-02T12:48:22.369Z,5.10
2018-09-02T12:50:57.116Z,5.03
2018-09-02T12:53:29.422Z,4.12
2018-09-02T12:55:59.603Z,3.70
2018-09-02T12:58:28.900Z,3.90
2018-09-02T13:00:57.804Z,4.65
2018-09-02T13:03:27.018Z,4.17
2018-09-02T13:05:56.073Z,4.00
2018-09-02T13:08:26.917Z,5.35
2018-09-02T13:10:58.345Z,3.62
2018-09-02T13:13:28.420Z,4.17
2018-09-02T13:15:57.517Z,11.73
2018-09-02T13:18:27.356Z,14.80
2018-09-02T13:20:59.855Z,4.00
2018-09-02T13:23:28.962Z,4.08
2018-09-02T13:25:58.089Z,3.40
2018-09-02T13:28:28.043Z,3.92
2018-09-02T13:30:57.161Z,3.58
2018-09-02T13:33:26.577Z,6.83
2018-09-02T13:35:56.046Z,3.50
2018-09-02T13:38:25.152Z,4.25
2018-09-02T13:40:53.936Z,6.70
2018-09-02T13:43:22.781Z,3.95
2018-09-02T13:45:54.326Z,4.85
2018-09-02T13:48:24.210Z,3.50
2018-09-02T13:50:53.307Z,3.47
2018-09-02T13:53:22.101Z,4.05
2018-09-02T13:55:50.935Z,3.80
2018-09-02T13:58:20.117Z,3.20
2018-09-02T14:00:49.119Z,3.25
2018-09-02T14:03:20.167Z,3.47
2018-09-02T14:05:49.303Z,3.92
2018-09-02T14:08:18.492Z,4.10
2018-09-02T14:10:47.569Z,5.83
2018-09-02T14:13:16.400Z,3.40
2018-09-02T14:15:46.705Z,5.58
2018-09-02T14:18:16.554Z,3.35
2018-09-02T14:20:46.225Z,3.17
2018-09-02T14:23:15.081Z,3.15
2018-09-02T14:25:44.299Z,3.55
2018-09-02T14:28:15.312Z,3.77
2018-09-02T14:30:45.004Z,3.12
2018-09-02T14:33:16.721Z,3.17
2018-09-02T14:35:48.798Z,3.40
2018-09-02T14:38:17.979Z,3.37
2018-09-02T14:40:47.575Z,2.95
2018-09-02T14:43:16.462Z,3.02
2018-09-02T14:45:45.236Z,3.12
2018-09-02T14:48:16.648Z,3.33
2018-09-02T14:50:46.742Z,3.62
2018-09-02T14:53:15.830Z,3.00
2018-09-02T14:55:44.869Z,3.05
2018-09-02T14:58:13.988Z,2.70
2018-09-02T15:00:43.352Z,2.83
2018-09-02T15:03:13.071Z,3.10
2018-09-02T15:05:43.345Z,3.35
2018-09-02T15:08:12.183Z,4.12
2018-09-02T15:10:40.981Z,3.60
2018-09-02T15:13:10.319Z,3.80
2018-09-02T15:15:39.340Z,3.65
2018-09-02T15:18:09.142Z,2.80
2018-09-02T15:20:39.567Z,3.30
2018-09-02T15:23:09.313Z,3.83
2018-09-02T15:25:38.665Z,2.83
2018-09-02T15:28:07.596Z,3.12
2018-09-02T15:30:36.635Z,3.55
2018-09-02T15:33:05.953Z,3.22
2018-09-02T15:35:35.320Z,4.20
2018-09-02T15:38:04.595Z,16.02
2018-09-02T15:40:33.738Z,9.80
2018-09-02T15:43:03.210Z,9.13
2018-09-02T15:45:33.817Z,4.87
2018-09-02T15:48:05.524Z,3.60
2018-09-02T15:50:35.451Z,4.97
2018-09-02T15:53:05.256Z,3.30
2018-09-02T15:55:34.628Z,4.28
2018-09-02T15:58:03.475Z,6.35
2018-09-02T16:00:32.345Z,3.15
2018-09-02T16:03:01.125Z,3.62
2018-09-02T16:05:30.538Z,3.17
2018-09-02T16:08:01.214Z,3.62
2018-09-02T16:10:32.981Z,3.05
2018-09-02T16:13:02.063Z,3.02
2018-09-02T16:15:31.045Z,4.30
2018-09-02T16:18:00.183Z,3.30
2018-09-02T16:20:29.300Z,3.30
2018-09-02T16:22:58.646Z,4.03
2018-09-02T16:25:30.849Z,3.95
2018-09-02T16:28:01.247Z,4.20
2018-09-02T16:30:30.149Z,3.80
2018-09-02T16:32:59.690Z,6.03
2018-09-02T16:35:28.475Z,4.35
2018-09-02T16:37:57.533Z,4.08
2018-09-02T16:40:27.304Z,4.28
2018-09-02T16:42:56.888Z,3.70
2018-09-02T16:45:25.716Z,4.28
2018-09-02T16:47:54.561Z,3.45
2018-09-02T16:50:23.468Z,24.15
2018-09-02T16:52:52.348Z,11.22
2018-09-02T16:55:22.009Z,10.68
2018-09-02T16:57:51.269Z,8.90
2018-09-02T17:00:20.684Z,5.08
2018-09-02T17:02:49.668Z,4.30
2018-09-02T17:05:21.566Z,3.10
2018-09-02T17:07:51.304Z,3.60
2018-09-02T17:10:21.543Z,3.22
2018-09-02T17:12:50.979Z,3.47
2018-09-02T17:15:20.810Z,3.15
2018-09-02T17:17:49.731Z,3.55
2018-09-02T17:20:26.113Z,3.95
2018-09-02T17:22:59.392Z,3.20
2018-09-02T17:25:28.205Z,3.05
2018-09-02T17:27:57.249Z,3.55
2018-09-02T17:30:26.428Z,3.27
2018-09-02T17:32:55.768Z,3.30
2018-09-02T17:35:25.919Z,3.30
2018-09-02T17:37:54.765Z,3.45
2018-09-02T17:40:23.568Z,3.33
2018-09-02T17:42:53.061Z,3.37
2018-09-02T17:45:23.882Z,3.05
2018-09-02T17:47:54.330Z,3.22
2018-09-02T17:50:23.675Z,3.33
2018-09-02T17:52:52.451Z,3.27
2018-09-02T17:55:21.623Z,2.90
2018-09-02T17:57:50.623Z,3.33
2018-09-02T18:00:26.524Z,3.77
2018-09-02T18:02:55.584Z,4.22
2018-09-02T18:05:25.468Z,6.72
2018-09-02T18:07:54.457Z,3.85
2018-09-02T18:10:23.387Z,6.72
2018-09-02T18:12:52.664Z,4.65
2018-09-02T18:15:22.023Z,6.53
2018-09-02T18:17:50.820Z,5.23
2018-09-02T18:20:20.100Z,4.78
2018-09-02T18:22:49.602Z,5.07
2018-09-02T18:25:18.432Z,4.33
2018-09-02T18:27:50.956Z,4.42
2018-09-02T18:30:21.306Z,3.60
2018-09-02T18:32:50.145Z,3.95
2018-09-02T18:35:19.151Z,3.80
2018-09-02T18:37:49.032Z,5.03
2018-09-02T18:40:17.808Z,5.13
2018-09-02T18:42:46.875Z,4.00
2018-09-02T18:45:16.011Z,3.90
2018-09-02T18:47:44.872Z,5.22
2018-09-02T18:50:14.172Z,4.30
2018-09-02T18:52:43.269Z,4.40
2018-09-02T18:55:12.257Z,4.30
2018-09-02T18:57:41.137Z,4.90
2018-09-02T19:00:10.014Z,4.53
2018-09-02T19:02:40.041Z,4.97
2018-09-02T19:05:11.121Z,4.50
2018-09-02T19:07:40.220Z,4.60
2018-09-02T19:10:09.112Z,6.13
2018-09-02T19:12:37.902Z,3.87
2018-09-02T19:15:07.685Z,4.20
2018-09-02T19:17:37.817Z,4.00
2018-09-02T19:20:10.357Z,4.23
2018-09-02T19:22:40.493Z,3.93
2018-09-02T19:25:09.332Z,4.87
2018-09-02T19:27:38.279Z,3.90
2018-09-02T19:30:07.443Z,3.93
2018-09-02T19:32:36.249Z,3.70
2018-09-02T19:35:05.418Z,3.60
2018-09-02T19:37:35.303Z,3.97
2018-09-02T19:40:04.636Z,4.13
2018-09-02T19:42:33.401Z,5.03
2018-09-02T19:45:03.836Z,4.07
2018-09-02T19:47:32.647Z,4.33
2018-09-02T19:50:02.931Z,3.90
2018-09-02T19:52:32.767Z,4.43
2018-09-02T19:55:01.817Z,4.90
2018-09-02T19:57:31.044Z,4.27
2018-09-02T20:00:01.640Z,4.67
2018-09-02T20:02:30.704Z,4.90
2018-09-02T20:05:00.853Z,5.67
2018-09-02T20:07:31.418Z,5.27
2018-09-02T20:10:00.501Z,5.40
2018-09-02T20:12:29.319Z,5.20
2018-09-02T20:14:58.103Z,6.27
2018-09-02T20:17:27.014Z,7.03
2018-09-02T20:19:57.017Z,5.13
2018-09-02T20:22:27.510Z,4.60
2018-09-02T20:24:57.684Z,5.00
2018-09-02T20:27:26.457Z,6.17
2018-09-02T20:29:55.727Z,5.20
2018-09-02T20:32:24.657Z,5.13
2018-09-02T20:34:53.463Z,5.43
2018-09-02T20:37:22.415Z,4.90
2018-09-02T20:39:53.374Z,5.60
2018-09-02T20:42:22.636Z,5.10
2018-09-02T20:44:51.794Z,5.40
2018-09-02T20:47:20.873Z,5.33
2018-09-02T20:49:50.152Z,5.77
2018-09-02T20:52:19.020Z,5.50
2018-09-02T20:54:48.972Z,5.60
2018-09-02T20:57:18.308Z,5.70
2018-09-02T20:59:47.113Z,6.47
2018-09-02T21:02:17.208Z,5.70
2018-09-02T21:04:46.549Z,5.53
2018-09-02T21:07:16.313Z,5.83
2018-09-02T21:09:46.349Z,5.70
2018-09-02T21:12:17.301Z,5.43
2018-09-02T21:14:47.126Z,5.70
2018-09-02T21:17:17.041Z,5.73
2018-09-02T21:19:46.084Z,5.63
2018-09-02T21:22:14.830Z,6.77
2018-09-02T21:24:43.674Z,6.30
2018-09-02T21:27:15.560Z,6.73
2018-09-02T21:29:44.999Z,6.73
2018-09-02T21:32:14.413Z,6.60
2018-09-02T21:34:43.214Z,6.17
2018-09-02T21:37:12.128Z,6.87
2018-09-02T21:39:41.421Z,6.73
2018-09-02T21:42:12.005Z,6.83
2018-09-02T21:44:40.934Z,7.07
2018-09-02T21:47:09.746Z,5.73
2018-09-02T21:49:38.696Z,6.20
2018-09-02T21:52:07.714Z,7.03
2018-09-02T21:54:36.943Z,6.30
2018-09-02T21:57:06.068Z,6.17
2018-09-02T21:59:36.679Z,6.17
2018-09-02T22:02:05.847Z,6.00
2018-09-02T22:04:34.605Z,5.17
2018-09-02T22:07:03.401Z,5.87
2018-09-02T22:09:33.800Z,5.83
2018-09-02T22:12:04.116Z,6.10
2018-09-02T22:14:32.909Z,5.60
2018-09-02T22:17:02.021Z,5.97
2018-09-02T22:19:30.992Z,6.20
2018-09-02T22:21:59.861Z,6.33
2018-09-02T22:24:29.701Z,6.40
2018-09-02T22:26:59.302Z,7.63
2018-09-02T22:29:30.067Z,7.63
2018-09-02T22:31:59.199Z,8.00
2018-09-02T22:34:28.074Z,6.63
2018-09-02T22:36:56.862Z,7.00
2018-09-02T22:39:26.341Z,6.80
2018-09-02T22:41:57.120Z,7.07
2018-09-02T22:44:26.084Z,6.50
2018-09-02T22:46:55.195Z,8.57
2018-09-02T22:49:24.137Z,7.23
2018-09-02T22:51:53.348Z,6.70
2018-09-02T22:54:22.107Z,7.40
2018-09-02T22:56:52.051Z,7.33
2018-09-02T22:59:20.825Z,6.53
2018-09-02T23:01:54.045Z,7.47
2018-09-02T23:04:22.834Z,7.23
2018-09-02T23:06:52.041Z,6.70
2018-09-02T23:09:20.798Z,7.57
2018-09-02T23:11:50.346Z,7.33
2018-09-02T23:14:20.000Z,7.77
2018-09-02T23:16:49.360Z,7.23
2018-09-02T23:19:18.610Z,8.20
2018-09-02T23:21:48.581Z,9.40
2018-09-02T23:24:17.730Z,9.80
2018-09-02T23:26:48.269Z,9.47
2018-09-02T23:29:19.782Z,10.13
2018-09-02T23:31:49.056Z,10.90
2018-09-02T23:34:18.556Z,10.80
2018-09-02T23:36:47.333Z,12.37
2018-09-02T23:39:16.632Z,10.77
2018-09-02T23:41:45.403Z,12.10
2018-09-02T23:44:14.926Z,10.93
2018-09-02T23:46:47.576Z,14.57
2018-09-02T23:49:18.266Z,15.40
2018-09-02T23:51:47.088Z,17.20
2018-09-02T23:54:16.598Z,17.13
2018-09-02T23:56:45.841Z,17.57
2018-09-02T23:59:15.181Z,18.73
